Time;durP1;ratioP1;P1;durP2;ratioP2;P2;SDS_P1;SDS_P2;PMS_P1;PMS_P2;Temp;Humidity;BMP_temperature;BMP_pressure;BME280_temperature;BME280_humidity;BME280_pressure;Samples;Min_cycle;Max_cycle;Signal;HPM_P1;HPM_P2
2022/01/06 00:00:11;;;;;;;8.02;2.55;;;5.10;99.90;;;;;;5136540;27;20177;-57
2022/01/06 00:02:36;;;;;;;11.93;2.67;;;5.20;99.90;;;;;;5136251;27;20217;-57
2022/01/06 00:05:03;;;;;;;11.00;2.75;;;5.10;99.90;;;;;;5136527;27;20171;-57
2022/01/06 00:07:29;;;;;;;10.15;2.67;;;5.10;99.90;;;;;;5136542;27;20181;-57
2022/01/06 00:09:55;;;;;;;11.15;3.33;;;5.10;99.90;;;;;;5136340;27;20192;-57
2022/01/06 00:12:26;;;;;;;7.78;2.60;;;5.10;99.90;;;;;;5136331;27;20271;-57
2022/01/06 00:17:40;;;;;;;12.82;2.90;;;5.00;99.90;;;;;;5136518;27;20200;-57
2022/01/06 00:23:22;;;;;;;7.60;2.40;;;5.00;99.90;;;;;;5136352;27;20592;-57
2022/01/06 00:25:49;;;;;;;13.25;3.33;;;4.70;99.90;;;;;;5135979;27;20281;-57
2022/01/06 00:28:15;;;;;;;6.57;2.55;;;4.70;99.90;;;;;;5136128;27;20175;-57
2022/01/06 00:30:41;;;;;;;12.55;2.78;;;4.70;99.90;;;;;;5135966;27;20180;-57
2022/01/06 00:33:07;;;;;;;13.65;2.83;;;4.70;99.90;;;;;;5135955;27;20254;-57
2022/01/06 00:35:32;;;;;;;9.57;2.78;;;4.60;99.90;;;;;;5135058;27;20204;-57
2022/01/06 00:37:58;;;;;;;10.85;2.95;;;4.50;99.90;;;;;;5135871;27;20180;-57
2022/01/06 00:40:24;;;;;;;7.90;2.15;;;4.50;99.90;;;;;;5134731;27;20246;-57
2022/01/06 00:42:49;;;;;;;13.10;3.08;;;4.40;99.90;;;;;;5135482;27;20224;-57
2022/01/06 00:45:15;;;;;;;10.32;3.13;;;4.40;99.90;;;;;;5135736;27;20207;-57
2022/01/06 00:47:41;;;;;;;10.10;2.97;;;4.40;99.90;;;;;;5135917;27;20182;-57
2022/01/06 00:50:07;;;;;;;8.73;2.67;;;4.40;99.90;;;;;;5135621;27;20176;-57
2022/01/06 00:52:33;;;;;;;11.05;2.65;;;4.40;99.90;;;;;;5135651;27;20180;-57
2022/01/06 00:54:58;;;;;;;10.55;2.95;;;4.40;99.90;;;;;;5135668;27;20525;-57
2022/01/06 00:57:24;;;;;;;12.82;3.13;;;4.40;99.90;;;;;;5135574;27;20172;-57
2022/01/06 00:59:50;;;;;;;7.88;2.53;;;4.50;99.90;;;;;;5135730;27;20187;-57
2022/01/06 01:02:16;;;;;;;10.60;2.92;;;4.50;99.90;;;;;;5135256;27;20277;-57
2022/01/06 01:04:41;;;;;;;7.70;2.78;;;4.60;99.90;;;;;;5135380;27;20204;-57
2022/01/06 01:07:07;;;;;;;14.13;3.22;;;4.70;99.90;;;;;;5133958;27;20606;-57
2022/01/06 01:09:33;;;;;;;10.82;3.25;;;4.80;99.90;;;;;;5135294;27;20180;-57
2022/01/06 01:12:03;;;;;;;10.60;3.13;;;4.80;99.90;;;;;;5135672;27;20537;-57
2022/01/06 01:14:33;;;;;;;12.33;3.30;;;4.80;99.90;;;;;;5135362;27;20259;-57
2022/01/06 01:17:01;;;;;;;17.52;3.55;;;4.80;99.90;;;;;;5134820;27;20637;-57
2022/01/06 01:19:30;;;;;;;10.27;3.50;;;5.00;99.90;;;;;;5135050;27;20191;-57
2022/01/06 01:21:57;;;;;;;7.30;3.17;;;5.00;99.90;;;;;;5135155;27;20207;-57
2022/01/06 01:24:23;;;;;;;11.82;3.55;;;5.00;99.90;;;;;;5135251;27;20180;-57
2022/01/06 01:26:49;;;;;;;12.68;3.67;;;5.00;99.90;;;;;;5134974;27;20178;-57
2022/01/06 01:29:17;;;;;;;12.55;3.13;;;5.00;99.90;;;;;;5134635;27;20254;-58
2022/01/06 01:31:51;;;;;;;12.75;3.45;;;5.00;99.90;;;;;;5134850;27;20209;-57
2022/01/06 01:34:24;;;;;;;10.95;3.58;;;5.00;99.90;;;;;;5134951;27;20183;-58
2022/01/06 01:36:52;;;;;;;9.13;3.13;;;5.00;99.90;;;;;;5135294;27;20156;-57
2022/01/06 01:39:18;;;;;;;9.90;3.40;;;4.90;99.90;;;;;;5135902;27;20522;-57
2022/01/06 01:41:44;;;;;;;15.20;3.03;;;5.00;99.90;;;;;;5135286;27;20256;-57
2022/01/06 01:44:14;;;;;;;9.50;3.28;;;5.00;99.90;;;;;;5134770;27;20172;-57
2022/01/06 01:46:51;;;;;;;14.82;3.45;;;4.90;99.90;;;;;;5134766;27;20569;-57
2022/01/06 01:51:44;;;;;;;15.85;3.42;;;4.60;99.90;;;;;;5133975;27;20198;-57
2022/01/06 01:54:10;;;;;;;12.50;3.40;;;4.70;99.90;;;;;;5134735;27;20183;-57
2022/01/06 01:56:38;;;;;;;12.30;3.05;;;4.70;99.90;;;;;;5134298;27;20690;-57
2022/01/06 01:59:04;;;;;;;14.20;3.72;;;4.80;99.90;;;;;;5134494;27;20176;-57
2022/01/06 02:01:29;;;;;;;12.55;3.92;;;4.80;99.90;;;;;;5134422;27;20354;-57
2022/01/06 02:03:55;;;;;;;14.57;4.18;;;4.90;99.90;;;;;;5134712;28;20685;-57
2022/01/06 02:06:20;;;;;;;12.13;3.85;;;5.00;99.90;;;;;;5134631;28;20641;-57
2022/01/06 02:08:46;;;;;;;11.50;3.70;;;4.90;99.90;;;;;;5134386;28;20179;-57
2022/01/06 02:11:12;;;;;;;16.17;3.20;;;4.80;99.90;;;;;;5134511;28;20180;-57
2022/01/06 02:13:58;;;;;;;14.00;3.20;;;4.70;99.90;;;;;;5134032;28;20223;-57
2022/01/06 02:16:26;;;;;;;11.27;3.20;;;4.50;99.90;;;;;;5134190;27;20195;-57
2022/01/06 02:18:53;;;;;;;9.38;2.42;;;4.30;99.90;;;;;;5133073;28;20172;-57
2022/01/06 02:21:19;;;;;;;13.07;2.77;;;4.30;99.90;;;;;;5134278;27;20192;-57
2022/01/06 02:23:45;;;;;;;11.32;2.95;;;4.30;99.90;;;;;;5132979;28;20535;-57
2022/01/06 02:26:12;;;;;;;8.77;2.70;;;4.30;99.90;;;;;;5134280;28;20175;-57
2022/01/06 02:28:40;;;;;;;13.05;2.53;;;4.30;99.90;;;;;;5134279;27;20207;-57
2022/01/06 02:31:06;;;;;;;8.00;2.58;;;4.40;99.90;;;;;;5134218;27;20308;-57
2022/01/06 02:33:32;;;;;;;10.77;2.40;;;4.40;99.90;;;;;;5133962;27;20199;-57
2022/01/06 02:35:57;;;;;;;9.02;2.75;;;4.40;99.90;;;;;;5134105;28;20622;-57
2022/01/06 02:38:23;;;;;;;10.77;2.78;;;4.40;99.90;;;;;;5133864;28;20171;-57
2022/01/06 02:40:49;;;;;;;11.23;2.47;;;4.50;99.90;;;;;;5134024;28;20199;-57
2022/01/06 02:43:18;;;;;;;11.10;2.78;;;4.50;99.90;;;;;;5133897;27;20628;-57
2022/01/06 02:45:45;;;;;;;7.97;2.63;;;4.40;99.90;;;;;;5134028;27;20184;-57
2022/01/06 02:48:11;;;;;;;8.25;2.35;;;4.40;99.90;;;;;;5134105;27;20206;-57
2022/01/06 02:50:39;;;;;;;9.75;2.47;;;4.50;99.90;;;;;;5134036;27;20221;-57
2022/01/06 02:53:06;;;;;;;11.65;2.40;;;4.50;99.90;;;;;;5134099;27;20199;-57
2022/01/06 02:55:34;;;;;;;7.10;2.47;;;4.50;99.90;;;;;;5132627;28;20591;-57
2022/01/06 02:57:59;;;;;;;9.27;2.15;;;4.40;99.90;;;;;;5132822;28;20193;-57
2022/01/06 03:00:26;;;;;;;8.60;2.42;;;4.50;99.90;;;;;;5133812;27;20560;-57
2022/01/06 03:02:51;;;;;;;9.57;2.40;;;4.40;99.90;;;;;;5135551;27;20173;-57
2022/01/06 03:05:17;;;;;;;12.00;2.50;;;4.40;99.90;;;;;;5136238;27;20207;-57
2022/01/06 03:07:44;;;;;;;8.30;2.58;;;4.40;99.90;;;;;;5138226;27;20262;-57
2022/01/06 03:10:13;;;;;;;8.20;2.55;;;4.40;99.90;;;;;;5137520;27;20182;-57
2022/01/06 03:12:39;;;;;;;10.50;2.90;;;4.40;99.90;;;;;;5137495;27;20633;-57
2022/01/06 03:15:14;;;;;;;9.57;3.05;;;4.50;99.90;;;;;;5137528;27;20183;-57
2022/01/06 03:17:42;;;;;;;13.23;3.25;;;4.60;99.90;;;;;;5137791;27;20574;-57
2022/01/06 03:20:10;;;;;;;11.82;3.28;;;4.60;99.90;;;;;;5137605;27;20259;-57
2022/01/06 03:22:36;;;;;;;15.45;4.00;;;4.70;99.90;;;;;;5137410;27;20171;-57
2022/01/06 03:25:03;;;;;;;12.82;3.47;;;4.80;99.90;;;;;;5137038;27;20201;-57
2022/01/06 03:27:29;;;;;;;14.35;3.45;;;4.80;99.90;;;;;;5137292;27;20172;-57
2022/01/06 03:29:55;;;;;;;12.75;3.35;;;4.80;99.90;;;;;;5138263;27;20205;-57
2022/01/06 03:32:20;;;;;;;14.20;3.35;;;4.80;99.90;;;;;;5139679;27;20187;-57
2022/01/06 03:34:46;;;;;;;9.70;3.30;;;4.80;99.90;;;;;;5137326;27;20570;-57
2022/01/06 03:37:13;;;;;;;12.23;2.97;;;4.90;99.90;;;;;;5137045;27;20191;-57
2022/01/06 03:39:40;;;;;;;8.60;3.00;;;4.90;99.90;;;;;;5137070;27;20190;-57
2022/01/06 03:42:06;;;;;;;10.25;2.90;;;4.90;99.90;;;;;;5136969;27;20254;-57
2022/01/06 03:44:32;;;;;;;10.75;3.00;;;5.00;99.90;;;;;;5137146;27;20176;-57
2022/01/06 03:46:57;;;;;;;14.77;3.75;;;5.00;99.90;;;;;;5135564;27;20270;-57
2022/01/06 03:49:23;;;;;;;12.80;3.53;;;4.90;99.90;;;;;;5136542;27;20214;-57
2022/01/06 03:51:49;;;;;;;13.18;2.90;;;5.10;99.90;;;;;;5136834;27;20210;-57
2022/01/06 03:54:15;;;;;;;14.68;3.53;;;5.10;99.90;;;;;;5136770;27;20176;-57
2022/01/06 03:56:41;;;;;;;10.00;3.28;;;5.10;99.90;;;;;;5136471;27;20182;-57
2022/01/06 03:59:07;;;;;;;10.35;3.10;;;5.20;99.90;;;;;;5135516;27;20168;-57
2022/01/06 04:01:33;;;;;;;12.23;3.25;;;5.10;99.90;;;;;;5136618;27;20603;-57
2022/01/06 04:03:59;;;;;;;14.68;4.00;;;5.00;99.90;;;;;;5136258;27;20196;-57
2022/01/06 04:06:25;;;;;;;8.93;3.10;;;5.00;99.90;;;;;;5136287;27;20179;-57
2022/01/06 04:08:51;;;;;;;11.10;3.40;;;5.00;99.90;;;;;;5134848;27;20245;-57
2022/01/06 04:11:17;;;;;;;11.32;3.47;;;4.90;99.90;;;;;;5136176;27;20184;-57
2022/01/06 04:13:43;;;;;;;14.18;3.45;;;4.80;99.90;;;;;;5135486;27;20228;-57
2022/01/06 04:16:11;;;;;;;11.45;3.38;;;4.60;99.90;;;;;;5136068;27;20641;-57
2022/01/06 04:18:37;;;;;;;10.20;2.85;;;4.50;99.90;;;;;;5136419;27;20164;-57
2022/01/06 04:21:03;;;;;;;10.10;2.70;;;4.60;99.90;;;;;;5136170;27;20203;-57
2022/01/06 04:23:29;;;;;;;12.02;2.67;;;4.50;99.90;;;;;;5136206;27;20266;-57
2022/01/06 04:25:55;;;;;;;11.60;3.00;;;4.50;99.90;;;;;;5136120;27;20199;-57
2022/01/06 04:28:20;;;;;;;12.23;2.80;;;4.40;99.90;;;;;;5136086;27;20198;-57
2022/01/06 04:30:46;;;;;;;9.20;3.87;;;4.30;99.90;;;;;;5135992;27;20183;-57
2022/01/06 04:33:12;;;;;;;11.30;3.45;;;4.30;99.90;;;;;;5135937;27;20184;-57
2022/01/06 04:35:37;;;;;;;7.70;2.97;;;4.20;99.90;;;;;;5135916;27;20180;-57
2022/01/06 04:38:03;;;;;;;12.20;4.03;;;4.20;99.90;;;;;;5134981;27;20225;-57
2022/01/06 04:40:29;;;;;;;9.10;3.30;;;4.20;99.90;;;;;;5135745;27;20200;-57
2022/01/06 04:42:54;;;;;;;8.95;3.58;;;4.20;99.90;;;;;;5135482;27;20265;-57
2022/01/06 04:45:20;;;;;;;9.27;3.33;;;4.20;99.90;;;;;;5135963;27;20514;-57
2022/01/06 04:47:45;;;;;;;8.73;3.60;;;4.10;99.90;;;;;;5134473;27;20184;-57
2022/01/06 04:50:12;;;;;;;8.20;3.38;;;4.00;99.90;;;;;;5135337;27;20172;-57
2022/01/06 04:52:37;;;;;;;12.60;3.58;;;3.80;99.90;;;;;;5135602;27;20173;-57
2022/01/06 04:55:05;;;;;;;13.03;3.13;;;3.80;99.90;;;;;;5135287;27;20181;-57
2022/01/06 04:57:31;;;;;;;11.10;3.27;;;3.80;99.90;;;;;;5135431;27;20176;-57
2022/01/06 04:59:56;;;;;;;11.03;3.40;;;3.70;99.90;;;;;;5135425;27;20579;-57
2022/01/06 05:02:22;;;;;;;9.80;3.78;;;3.70;99.90;;;;;;5135339;27;20357;-57
2022/01/06 05:04:48;;;;;;;12.63;3.47;;;3.60;99.90;;;;;;5135445;27;20657;-57
2022/01/06 05:07:13;;;;;;;7.78;3.08;;;3.70;99.90;;;;;;5135357;27;20180;-57
2022/01/06 05:09:39;;;;;;;11.25;3.35;;;3.60;99.90;;;;;;5135192;27;20180;-57
2022/01/06 05:12:05;;;;;;;10.18;3.33;;;3.60;99.90;;;;;;5134946;27;20176;-57
2022/01/06 05:14:31;;;;;;;8.90;3.00;;;3.50;99.90;;;;;;5135070;27;20174;-57
2022/01/06 05:16:56;;;;;;;10.75;3.35;;;3.60;99.90;;;;;;5134971;27;20199;-57
2022/01/06 05:19:23;;;;;;;11.43;3.72;;;3.60;99.90;;;;;;5134276;27;20203;-57
2022/01/06 05:21:51;;;;;;;12.43;3.60;;;3.60;99.90;;;;;;5135120;27;20203;-57
2022/01/06 05:24:22;;;;;;;10.68;3.95;;;3.60;99.90;;;;;;5135106;27;20203;-57
2022/01/06 05:26:49;;;;;;;8.93;3.37;;;3.70;99.90;;;;;;5134484;27;20559;-57
2022/01/06 05:29:15;;;;;;;15.52;3.22;;;3.80;99.90;;;;;;5134945;27;20173;-57
2022/01/06 05:31:41;;;;;;;10.30;3.53;;;3.70;99.90;;;;;;5134864;27;20266;-57
2022/01/06 05:34:06;;;;;;;10.57;4.20;;;3.80;99.90;;;;;;5134795;27;20184;-57
2022/01/06 05:36:33;;;;;;;12.77;4.03;;;3.80;99.90;;;;;;5134897;27;20168;-57
2022/01/06 05:38:59;;;;;;;9.00;3.93;;;3.80;99.90;;;;;;5134773;27;20267;-57
2022/01/06 05:41:25;;;;;;;13.05;4.72;;;3.90;99.90;;;;;;5133870;27;20212;-57
2022/01/06 05:43:51;;;;;;;10.63;4.03;;;3.90;99.90;;;;;;5134696;27;20174;-57
2022/01/06 05:46:17;;;;;;;11.33;3.97;;;3.80;99.90;;;;;;5134774;27;20177;-57
2022/01/06 05:48:44;;;;;;;12.97;4.60;;;3.80;99.90;;;;;;5134570;27;20233;-57
2022/01/06 05:51:10;;;;;;;8.30;3.72;;;3.90;99.90;;;;;;5134301;27;20191;-57
2022/01/06 05:53:35;;;;;;;10.35;4.50;;;3.80;99.90;;;;;;5133450;27;20176;-57
2022/01/06 05:56:01;;;;;;;10.30;4.27;;;3.90;99.90;;;;;;5134387;27;20206;-57
2022/01/06 05:58:27;;;;;;;8.80;4.10;;;3.90;99.90;;;;;;5134474;27;20621;-57
2022/01/06 06:00:52;;;;;;;12.05;4.25;;;3.90;99.90;;;;;;5133009;27;20277;-57
2022/01/06 06:03:18;;;;;;;8.70;4.00;;;3.80;99.90;;;;;;5134481;27;20271;-57
2022/01/06 06:05:44;;;;;;;7.83;3.87;;;3.80;99.90;;;;;;5116220;28;20588;-57
2022/01/06 06:08:10;;;;;;;9.45;3.90;;;3.80;99.90;;;;;;5134440;28;20176;-57
2022/01/06 06:10:36;;;;;;;10.77;3.90;;;3.90;99.90;;;;;;5134124;27;20647;-57
2022/01/06 06:13:03;;;;;;;14.82;4.18;;;3.80;99.90;;;;;;5134461;27;20212;-57
2022/01/06 06:15:34;;;;;;;10.80;4.25;;;3.70;99.90;;;;;;5134361;27;20176;-56
2022/01/06 06:18:04;;;;;;;11.27;4.55;;;3.60;99.90;;;;;;5133424;27;20191;-57
2022/01/06 06:20:29;;;;;;;13.52;4.57;;;3.60;99.90;;;;;;5122397;28;20177;-57
2022/01/06 06:22:55;;;;;;;15.70;5.30;;;3.50;99.90;;;;;;5112229;28;20195;-56
2022/01/06 06:25:21;;;;;;;13.52;5.03;;;3.50;99.90;;;;;;5113741;28;20183;-57
2022/01/06 06:27:47;;;;;;;10.03;5.10;;;3.40;99.90;;;;;;5113610;28;20771;-56
2022/01/06 06:30:12;;;;;;;12.27;5.80;;;3.40;99.90;;;;;;5112516;28;20268;-57
2022/01/06 06:32:38;;;;;;;13.68;5.97;;;3.40;99.90;;;;;;5112168;28;20258;-57
2022/01/06 06:35:05;;;;;;;9.03;5.53;;;3.40;99.90;;;;;;5112508;28;20542;-56
2022/01/06 06:37:31;;;;;;;12.45;5.75;;;3.40;99.90;;;;;;5115023;28;20247;-57
2022/01/06 06:39:57;;;;;;;15.37;5.50;;;3.40;99.90;;;;;;5117356;28;20263;-57
2022/01/06 06:42:24;;;;;;;13.80;5.07;;;3.40;99.90;;;;;;5117447;28;20291;-56
2022/01/06 06:44:50;;;;;;;10.13;4.30;;;3.50;99.90;;;;;;5117525;28;20626;-56
2022/01/06 06:47:15;;;;;;;9.82;4.25;;;3.50;99.90;;;;;;5117532;28;20176;-57
2022/01/06 06:49:41;;;;;;;10.82;4.68;;;3.50;99.90;;;;;;5137062;27;20177;-57
2022/01/06 06:52:07;;;;;;;10.73;4.00;;;3.40;99.90;;;;;;5137690;27;20602;-56
2022/01/06 06:54:32;;;;;;;9.47;3.27;;;3.50;99.90;;;;;;5138051;27;20229;-56
2022/01/06 06:56:58;;;;;;;8.17;3.70;;;3.60;99.90;;;;;;5137822;27;20176;-56
2022/01/06 06:59:24;;;;;;;8.90;3.90;;;3.50;99.90;;;;;;5137345;27;20261;-56
2022/01/06 07:01:49;;;;;;;14.40;4.00;;;3.60;99.90;;;;;;5136524;27;20203;-56
2022/01/06 07:04:15;;;;;;;10.97;4.50;;;3.60;99.90;;;;;;5137764;27;20175;-56
2022/01/06 07:06:41;;;;;;;10.70;3.77;;;3.60;99.90;;;;;;5136291;27;20267;-57
2022/01/06 07:09:06;;;;;;;9.27;3.63;;;3.60;99.90;;;;;;5137923;27;20302;-56
2022/01/06 07:11:33;;;;;;;13.20;4.47;;;3.70;99.90;;;;;;5137760;27;20270;-56
2022/01/06 07:13:59;;;;;;;10.18;3.97;;;3.70;99.90;;;;;;5137878;27;20172;-58
2022/01/06 07:16:24;;;;;;;11.43;4.23;;;3.70;99.90;;;;;;5136394;27;20199;-57
2022/01/06 07:18:50;;;;;;;8.80;3.87;;;3.80;99.90;;;;;;5125206;27;20219;-56
2022/01/06 07:21:16;;;;;;;11.20;3.78;;;3.80;99.90;;;;;;5116803;28;20205;-56
2022/01/06 07:23:41;;;;;;;10.87;4.10;;;3.70;99.90;;;;;;5115697;28;20168;-57
2022/01/06 07:26:07;;;;;;;16.58;4.97;;;3.70;99.90;;;;;;5116873;28;20177;-56
2022/01/06 07:28:33;;;;;;;12.33;5.03;;;3.60;99.90;;;;;;5116607;28;20184;-56
2022/01/06 07:30:59;;;;;;;10.95;5.07;;;3.60;99.90;;;;;;5116629;28;20187;-56
2022/01/06 07:33:25;;;;;;;13.60;4.85;;;3.60;99.90;;;;;;5116580;28;20173;-57
2022/01/06 07:35:51;;;;;;;9.00;4.18;;;3.60;99.90;;;;;;5116135;28;20180;-57
2022/01/06 07:38:17;;;;;;;11.70;4.50;;;3.60;99.90;;;;;;5116277;28;20173;-57
2022/01/06 07:40:44;;;;;;;12.37;4.83;;;3.60;99.90;;;;;;5116238;28;20207;-57
2022/01/06 07:43:11;;;;;;;13.70;4.80;;;3.60;99.90;;;;;;5116349;28;20203;-57
2022/01/06 07:45:37;;;;;;;12.37;4.70;;;3.60;99.90;;;;;;5116146;28;20755;-57
2022/01/06 07:48:14;;;;;;;11.68;4.38;;;3.60;99.90;;;;;;5120580;27;20282;-57
2022/01/06 07:50:40;;;;;;;12.37;4.20;;;3.50;99.90;;;;;;5136869;27;20181;-57
2022/01/06 07:53:06;;;;;;;11.43;4.37;;;3.40;99.90;;;;;;5136823;27;20196;-57
2022/01/06 07:55:32;;;;;;;8.67;3.83;;;3.40;99.90;;;;;;5118463;27;20267;-56
2022/01/06 07:57:58;;;;;;;12.57;4.50;;;3.40;99.90;;;;;;5135528;27;20180;-56
2022/01/06 08:00:24;;;;;;;7.33;4.40;;;3.40;99.90;;;;;;5135666;27;20172;-57
2022/01/06 08:02:51;;;;;;;14.13;5.30;;;3.50;99.90;;;;;;5136820;27;20200;-56
2022/01/06 08:05:22;;;;;;;10.10;4.67;;;3.40;99.90;;;;;;5136565;27;20189;-55
2022/01/06 08:07:47;;;;;;;12.20;5.50;;;3.40;99.90;;;;;;5136268;27;20673;-57
2022/01/06 08:10:13;;;;;;;13.37;5.57;;;3.40;99.90;;;;;;5136178;27;20241;-57
2022/01/06 08:12:39;;;;;;;17.50;5.97;;;3.40;99.90;;;;;;5135761;27;20621;-57
2022/01/06 08:15:05;;;;;;;16.23;6.23;;;3.40;99.90;;;;;;5136447;27;20175;-57
2022/01/06 08:17:31;;;;;;;10.73;5.63;;;3.40;99.90;;;;;;5136360;27;20196;-57
2022/01/06 08:19:57;;;;;;;15.03;6.07;;;3.40;99.90;;;;;;5135114;27;20567;-57
2022/01/06 08:22:23;;;;;;;14.67;5.60;;;3.40;99.90;;;;;;5136135;27;20247;-57
2022/01/06 08:24:49;;;;;;;14.60;6.33;;;3.50;99.90;;;;;;5136145;27;20205;-57
2022/01/06 08:27:14;;;;;;;14.80;6.13;;;3.40;99.90;;;;;;5136130;27;20524;-58
2022/01/06 08:29:41;;;;;;;12.87;5.93;;;3.50;99.90;;;;;;5136082;27;20182;-57
2022/01/06 08:32:07;;;;;;;17.23;6.43;;;3.60;99.90;;;;;;5135981;27;20179;-57
2022/01/06 08:34:36;;;;;;;13.63;6.90;;;3.70;99.90;;;;;;5135650;27;20690;-58
2022/01/06 08:37:03;;;;;;;12.37;6.80;;;3.90;99.90;;;;;;5136192;27;20175;-57
2022/01/06 08:39:28;;;;;;;18.83;7.33;;;4.00;99.90;;;;;;5135803;27;20190;-58
2022/01/06 08:41:54;;;;;;;13.73;7.57;;;4.10;99.90;;;;;;5135749;27;20196;-57
2022/01/06 08:44:21;;;;;;;17.83;7.20;;;4.20;99.90;;;;;;5135487;27;20199;-58
2022/01/06 08:46:47;;;;;;;17.73;7.63;;;4.40;99.90;;;;;;5135806;27;20266;-57
2022/01/06 08:49:15;;;;;;;17.87;7.60;;;4.50;99.90;;;;;;5135732;27;20187;-58
2022/01/06 08:51:41;;;;;;;25.27;8.35;;;4.50;99.90;;;;;;5135577;27;20537;-58
2022/01/06 08:54:07;;;;;;;21.77;8.13;;;4.60;99.90;;;;;;5135570;27;20227;-58
2022/01/06 08:56:37;;;;;;;19.42;7.40;;;4.70;99.90;;;;;;5135873;27;20186;-58
2022/01/06 08:59:04;;;;;;;18.15;7.70;;;4.80;99.90;;;;;;5135894;27;20195;-58
2022/01/06 09:01:30;;;;;;;15.48;7.78;;;4.80;99.90;;;;;;5135787;27;20206;-58
2022/01/06 09:03:55;;;;;;;14.93;7.47;;;4.80;99.90;;;;;;5136361;27;20164;-58
2022/01/06 09:06:21;;;;;;;16.97;7.30;;;4.80;99.90;;;;;;5135144;27;20562;-57
2022/01/06 09:08:47;;;;;;;18.00;7.80;;;4.90;99.90;;;;;;5135367;27;20176;-58
2022/01/06 09:11:13;;;;;;;18.90;7.38;;;5.00;99.90;;;;;;5135310;27;20216;-58
2022/01/06 09:13:39;;;;;;;20.08;8.15;;;4.90;99.90;;;;;;5135005;27;20168;-57
2022/01/06 09:16:08;;;;;;;17.90;7.20;;;4.90;99.90;;;;;;5135003;27;20652;-57
2022/01/06 09:18:38;;;;;;;17.80;7.70;;;4.80;99.90;;;;;;5134887;27;20529;-57
2022/01/06 09:21:05;;;;;;;17.17;6.97;;;4.80;99.90;;;;;;5135055;27;20553;-57
2022/01/06 09:23:31;;;;;;;17.15;7.78;;;4.80;99.90;;;;;;5134994;27;20179;-57
2022/01/06 09:25:57;;;;;;;15.35;6.18;;;4.90;99.90;;;;;;5134780;27;20204;-57
2022/01/06 09:28:22;;;;;;;17.60;7.18;;;4.80;99.90;;;;;;5134971;27;20179;-57
2022/01/06 09:30:51;;;;;;;20.40;7.65;;;4.90;99.90;;;;;;5134964;27;20169;-57
2022/01/06 09:33:20;;;;;;;18.90;7.45;;;4.70;99.90;;;;;;5134578;27;20183;-57
2022/01/06 09:35:47;;;;;;;20.55;7.60;;;4.80;99.90;;;;;;5134899;27;20624;-57
2022/01/06 09:38:13;;;;;;;20.05;7.70;;;4.80;99.90;;;;;;5134836;27;20317;-58
2022/01/06 09:40:43;;;;;;;13.98;7.13;;;4.90;99.90;;;;;;5134373;27;20688;-57
2022/01/06 09:43:13;;;;;;;15.75;7.20;;;4.90;99.90;;;;;;5134757;27;20173;-57
2022/01/06 09:45:40;;;;;;;16.15;7.50;;;4.80;99.90;;;;;;5134663;27;20176;-57
2022/01/06 09:48:08;;;;;;;22.45;7.85;;;4.90;99.90;;;;;;5134287;27;20644;-57
2022/01/06 09:50:35;;;;;;;16.85;7.70;;;4.90;99.90;;;;;;5134606;27;20191;-58
2022/01/06 09:53:01;;;;;;;14.48;7.78;;;4.90;99.90;;;;;;5134605;27;20172;-57
2022/01/06 09:55:26;;;;;;;15.32;7.50;;;4.90;99.90;;;;;;5134566;27;20229;-57
2022/01/06 09:58:00;;;;;;;13.52;6.93;;;5.00;99.90;;;;;;5134203;27;20545;-57
2022/01/06 10:00:28;;;;;;;20.08;7.88;;;4.90;99.90;;;;;;5134405;27;20165;-57
2022/01/06 10:03:05;;;;;;;21.55;8.10;;;4.90;99.90;;;;;;5134432;27;20180;-57
2022/01/06 10:05:39;;;;;;;18.42;8.15;;;5.00;99.90;;;;;;5134559;27;20204;-57
2022/01/06 10:08:05;;;;;;;16.15;7.63;;;5.10;99.90;;;;;;5134095;27;20740;-57
2022/01/06 10:10:31;;;;;;;16.80;7.38;;;5.00;99.90;;;;;;5134132;28;20171;-57
2022/01/06 10:12:58;;;;;;;21.50;8.43;;;5.00;99.90;;;;;;5136756;27;20179;-57
2022/01/06 10:15:26;;;;;;;18.40;7.38;;;5.20;99.90;;;;;;5138747;27;20216;-57
2022/01/06 10:17:52;;;;;;;17.20;8.18;;;5.20;99.90;;;;;;5138758;27;20187;-57
2022/01/06 10:20:21;;;;;;;20.20;7.68;;;5.30;99.90;;;;;;5138592;27;20179;-57
2022/01/06 10:22:56;;;;;;;15.30;7.72;;;5.20;99.90;;;;;;5138490;27;20486;-58
2022/01/06 10:25:24;;;;;;;20.20;7.45;;;5.20;99.90;;;;;;5138570;27;20155;-58
2022/01/06 10:27:56;;;;;;;15.68;7.68;;;5.40;99.90;;;;;;5138423;27;20182;-57
2022/01/06 10:30:22;;;;;;;18.95;8.43;;;5.50;99.90;;;;;;5138451;27;20175;-58
2022/01/06 10:32:47;;;;;;;14.73;7.15;;;5.50;99.90;;;;;;5138347;27;20176;-58
2022/01/06 10:35:17;;;;;;;19.25;7.55;;;5.50;99.90;;;;;;5138092;27;20176;-57
2022/01/06 10:37:48;;;;;;;19.13;8.20;;;5.50;99.90;;;;;;5138467;27;20176;-57
2022/01/06 10:40:24;;;;;;;19.73;7.75;;;5.50;99.90;;;;;;5138237;27;20173;-57
2022/01/06 10:42:53;;;;;;;14.93;7.47;;;5.40;99.90;;;;;;5138106;27;20192;-57
2022/01/06 10:45:25;;;;;;;14.70;7.38;;;5.40;99.90;;;;;;5138151;27;20172;-57
2022/01/06 10:47:53;;;;;;;17.75;7.70;;;5.40;99.90;;;;;;5138190;27;20180;-57
2022/01/06 10:50:20;;;;;;;17.10;7.65;;;5.40;99.90;;;;;;5138669;27;20172;-57
2022/01/06 10:52:57;;;;;;;18.17;7.88;;;5.50;99.90;;;;;;5139587;27;20195;-58
2022/01/06 10:55:28;;;;;;;11.63;7.05;;;5.60;99.90;;;;;;5138077;27;20167;-57
2022/01/06 10:58:18;;;;;;;16.77;7.47;;;5.50;99.90;;;;;;5137688;27;20513;-57
2022/01/06 11:00:47;;;;;;;16.33;7.95;;;5.60;99.90;;;;;;5137792;27;20204;-57
2022/01/06 11:03:17;;;;;;;17.20;7.43;;;5.50;99.90;;;;;;5137818;27;20203;-57
2022/01/06 11:05:51;;;;;;;15.95;7.18;;;5.50;99.90;;;;;;5137746;27;20169;-57
2022/01/06 11:08:24;;;;;;;19.63;7.95;;;5.50;99.90;;;;;;5137794;27;20159;-57
2022/01/06 11:11:03;;;;;;;14.02;7.32;;;5.60;99.90;;;;;;5137654;27;20556;-57
2022/01/06 11:13:39;;;;;;;13.18;7.22;;;5.70;99.90;;;;;;5137338;27;20580;-57
2022/01/06 11:16:06;;;;;;;17.63;7.07;;;5.70;99.90;;;;;;5137264;27;20188;-57
2022/01/06 11:18:32;;;;;;;18.23;7.45;;;5.90;99.90;;;;;;5137549;27;20229;-57
2022/01/06 11:21:07;;;;;;;16.50;7.68;;;6.00;99.90;;;;;;5137087;27;20192;-58
2022/01/06 11:23:33;;;;;;;17.52;6.93;;;6.00;99.90;;;;;;5137042;27;20160;-58
2022/01/06 11:26:07;;;;;;;16.35;7.00;;;6.00;99.90;;;;;;5137138;27;20640;-57
2022/01/06 11:28:34;;;;;;;16.67;7.43;;;6.20;99.90;;;;;;5137371;27;20623;-57
2022/01/06 11:31:12;;;;;;;15.07;7.18;;;6.20;99.90;;;;;;5137213;27;20207;-57
2022/01/06 11:33:42;;;;;;;20.48;7.10;;;6.20;99.90;;;;;;5137250;27;20183;-58
2022/01/06 11:36:24;;;;;;;21.02;7.45;;;6.30;99.90;;;;;;5137060;27;20209;-58
2022/01/06 11:38:50;;;;;;;24.85;8.18;;;6.40;99.90;;;;;;5136853;27;20163;-57
2022/01/06 11:41:17;;;;;;;19.70;7.53;;;6.40;99.90;;;;;;5136967;27;20200;-58
2022/01/06 11:43:45;;;;;;;18.58;6.75;;;6.40;99.90;;;;;;5136958;27;20243;-57
2022/01/06 11:46:11;;;;;;;17.33;6.45;;;6.40;99.90;;;;;;5136884;27;20172;-57
2022/01/06 11:48:55;;;;;;;20.13;6.38;;;6.50;99.90;;;;;;5136945;27;20180;-57
2022/01/06 11:51:30;;;;;;;18.05;6.20;;;6.40;99.90;;;;;;5136886;27;20168;-57
2022/01/06 11:53:57;;;;;;;18.20;6.90;;;6.40;99.90;;;;;;5136861;27;20163;-58
2022/01/06 11:56:24;;;;;;;13.60;6.22;;;6.40;99.90;;;;;;5136712;27;20180;-58
2022/01/06 11:59:27;;;;;;;18.15;5.85;;;6.40;99.90;;;;;;5137021;27;20187;-58
2022/01/06 12:01:53;;;;;;;15.65;6.18;;;6.50;99.90;;;;;;5136243;27;20208;-57
2022/01/06 12:04:23;;;;;;;13.68;6.43;;;6.50;99.90;;;;;;5136367;27;20537;-57
2022/01/06 12:06:49;;;;;;;15.50;5.85;;;6.40;99.90;;;;;;5136570;27;20175;-57
2022/01/06 12:09:23;;;;;;;14.00;6.18;;;6.50;99.90;;;;;;5136481;27;20163;-57
2022/01/06 12:12:03;;;;;;;11.90;5.80;;;6.50;99.90;;;;;;5136234;27;20691;-57
2022/01/06 12:14:29;;;;;;;13.30;5.50;;;6.40;99.90;;;;;;5136312;27;20256;-57
2022/01/06 12:17:07;;;;;;;17.30;6.15;;;6.40;99.90;;;;;;5136184;27;20665;-57
2022/01/06 12:19:33;;;;;;;17.05;6.55;;;6.30;99.90;;;;;;5136363;27;20169;-57
2022/01/06 12:22:00;;;;;;;15.85;6.63;;;6.30;99.90;;;;;;5134913;27;20211;-58
2022/01/06 12:24:26;;;;;;;14.57;5.85;;;6.40;99.90;;;;;;5135793;27;20179;-57
2022/01/06 12:26:53;;;;;;;16.52;6.40;;;6.50;99.90;;;;;;5136142;27;20188;-57
2022/01/06 12:29:22;;;;;;;13.73;5.47;;;6.40;99.90;;;;;;5136172;27;20239;-57
2022/01/06 12:31:49;;;;;;;15.85;6.70;;;6.50;99.90;;;;;;5136006;27;20220;-57
2022/01/06 12:34:16;;;;;;;13.63;5.95;;;6.60;99.90;;;;;;5136010;27;20187;-57
2022/01/06 12:36:44;;;;;;;15.10;6.40;;;6.50;99.90;;;;;;5135615;27;20168;-57
2022/01/06 12:39:19;;;;;;;12.27;5.95;;;6.60;99.90;;;;;;5136032;27;20268;-57
2022/01/06 12:41:46;;;;;;;16.33;6.07;;;6.60;99.90;;;;;;5137789;27;20533;-57
2022/01/06 12:44:18;;;;;;;14.30;6.10;;;6.40;99.90;;;;;;5138043;27;20176;-57
2022/01/06 12:46:44;;;;;;;15.38;6.75;;;6.30;99.90;;;;;;5135797;27;20191;-56
2022/01/06 12:49:10;;;;;;;16.10;6.15;;;6.40;99.90;;;;;;5135799;27;20250;-57
2022/01/06 12:51:39;;;;;;;18.38;5.82;;;6.60;99.90;;;;;;5135716;27;20267;-57
2022/01/06 12:54:13;;;;;;;14.02;6.30;;;6.40;99.90;;;;;;5135649;27;20168;-57
2022/01/06 12:56:44;;;;;;;16.52;7.05;;;6.60;99.90;;;;;;5135597;27;20243;-57